Lillyville, Illinois
Current Conditions -  °F | °C
As of 2:35 PM on Monday 22 Dec 2014 (Local Time) from K1H2 Reporting Station
Moderate Rain Moderate Rain  
Wind Chill:   Ceiling: 700
Heat Index:   Visibility: 3mi
Dew Point:   Wind: 14mph
Humidity: 90%   Direction: 100°E
Pressure: 29.66"   Gusts: 17mph
Location:  39.1183°N, 88.6059°W
Report Text: K1H2 222035Z AUTO 10012G15KT 3SM RA BKN007 OVC010 08/07 A2966 RMK AO2 P0001 T00810065
Loading
Personal Weather Stations






























Interactive Weather Map New forecast layout! Learn more

10-Day Weather Forecast

Advertisements
Track Severe Weather on mobile